sensor_id;sensor_type;location;lat;lon;timestamp;P1;durP1;ratioP1;P2;durP2;ratioP2
2944;SDS011;1482;51.398;7.128;2023-12-20T00:02:13;18.23;;;13.17;;
2944;SDS011;1482;51.398;7.128;2023-12-20T00:04:39;20.93;;;13.87;;
2944;SDS011;1482;51.398;7.128;2023-12-20T00:07:04;24.73;;;15.77;;
2944;SDS011;1482;51.398;7.128;2023-12-20T00:09:30;27.77;;;16.47;;
2944;SDS011;1482;51.398;7.128;2023-12-20T00:11:55;26.40;;;16.20;;
2944;SDS011;1482;51.398;7.128;2023-12-20T00:14:21;22.73;;;15.43;;
2944;SDS011;1482;51.398;7.128;2023-12-20T00:16:47;26.27;;;16.53;;
2944;SDS011;1482;51.398;7.128;2023-12-20T00:19:12;29.60;;;16.10;;
2944;SDS011;1482;51.398;7.128;2023-12-20T00:21:38;24.30;;;17.47;;
2944;SDS011;1482;51.398;7.128;2023-12-20T00:24:04;27.53;;;16.53;;
2944;SDS011;1482;51.398;7.128;2023-12-20T00:26:30;28.83;;;16.80;;
2944;SDS011;1482;51.398;7.128;2023-12-20T00:28:55;30.23;;;16.70;;
2944;SDS011;1482;51.398;7.128;2023-12-20T00:31:21;30.50;;;18.57;;
2944;SDS011;1482;51.398;7.128;2023-12-20T00:33:46;25.80;;;17.47;;
2944;SDS011;1482;51.398;7.128;2023-12-20T00:36:12;28.80;;;16.47;;
2944;SDS011;1482;51.398;7.128;2023-12-20T00:38:37;23.07;;;15.77;;
2944;SDS011;1482;51.398;7.128;2023-12-20T00:41:03;26.07;;;15.90;;
2944;SDS011;1482;51.398;7.128;2023-12-20T00:43:28;22.40;;;15.73;;
2944;SDS011;1482;51.398;7.128;2023-12-20T00:45:54;24.70;;;13.23;;
2944;SDS011;1482;51.398;7.128;2023-12-20T00:48:20;20.70;;;14.90;;
2944;SDS011;1482;51.398;7.128;2023-12-20T00:50:46;26.13;;;15.57;;
2944;SDS011;1482;51.398;7.128;2023-12-20T00:53:11;24.10;;;13.57;;
2944;SDS011;1482;51.398;7.128;2023-12-20T00:55:37;24.50;;;13.43;;
2944;SDS011;1482;51.398;7.128;2023-12-20T00:58:02;29.30;;;13.90;;
2944;SDS011;1482;51.398;7.128;2023-12-20T01:00:28;21.37;;;13.37;;
2944;SDS011;1482;51.398;7.128;2023-12-20T01:02:54;24.70;;;14.00;;
2944;SDS011;1482;51.398;7.128;2023-12-20T01:05:19;21.97;;;12.70;;
2944;SDS011;1482;51.398;7.128;2023-12-20T01:07:48;22.00;;;12.80;;
2944;SDS011;1482;51.398;7.128;2023-12-20T01:10:13;17.10;;;11.37;;
2944;SDS011;1482;51.398;7.128;2023-12-20T01:12:39;23.43;;;11.83;;
2944;SDS011;1482;51.398;7.128;2023-12-20T01:15:05;22.20;;;13.23;;
2944;SDS011;1482;51.398;7.128;2023-12-20T01:17:31;18.10;;;11.37;;
2944;SDS011;1482;51.398;7.128;2023-12-20T01:19:56;22.30;;;10.83;;
2944;SDS011;1482;51.398;7.128;2023-12-20T01:22:23;19.83;;;10.63;;
2944;SDS011;1482;51.398;7.128;2023-12-20T01:24:48;21.70;;;11.53;;
2944;SDS011;1482;51.398;7.128;2023-12-20T01:27:14;16.50;;;8.57;;
2944;SDS011;1482;51.398;7.128;2023-12-20T01:29:39;20.60;;;9.97;;
2944;SDS011;1482;51.398;7.128;2023-12-20T01:32:05;15.73;;;10.07;;
2944;SDS011;1482;51.398;7.128;2023-12-20T01:34:31;28.87;;;10.37;;
2944;SDS011;1482;51.398;7.128;2023-12-20T01:36:57;18.97;;;8.90;;
2944;SDS011;1482;51.398;7.128;2023-12-20T01:39:22;19.10;;;9.90;;
2944;SDS011;1482;51.398;7.128;2023-12-20T01:41:48;19.23;;;10.80;;
2944;SDS011;1482;51.398;7.128;2023-12-20T01:44:13;17.00;;;10.00;;
2944;SDS011;1482;51.398;7.128;2023-12-20T01:46:39;19.10;;;11.20;;
2944;SDS011;1482;51.398;7.128;2023-12-20T01:49:05;26.10;;;10.50;;
2944;SDS011;1482;51.398;7.128;2023-12-20T01:51:31;16.00;;;10.00;;
2944;SDS011;1482;51.398;7.128;2023-12-20T01:53:58;19.27;;;11.30;;
2944;SDS011;1482;51.398;7.128;2023-12-20T01:56:25;21.53;;;11.60;;
2944;SDS011;1482;51.398;7.128;2023-12-20T01:58:53;15.23;;;10.43;;
2944;SDS011;1482;51.398;7.128;2023-12-20T02:01:19;24.40;;;13.30;;
2944;SDS011;1482;51.398;7.128;2023-12-20T02:03:44;20.23;;;9.50;;
2944;SDS011;1482;51.398;7.128;2023-12-20T02:06:10;16.17;;;10.53;;
2944;SDS011;1482;51.398;7.128;2023-12-20T02:08:36;19.90;;;11.53;;
2944;SDS011;1482;51.398;7.128;2023-12-20T02:11:02;23.33;;;10.20;;
2944;SDS011;1482;51.398;7.128;2023-12-20T02:13:27;19.43;;;10.87;;
2944;SDS011;1482;51.398;7.128;2023-12-20T02:15:54;17.33;;;10.40;;
2944;SDS011;1482;51.398;7.128;2023-12-20T02:18:20;18.97;;;11.07;;
2944;SDS011;1482;51.398;7.128;2023-12-20T02:20:45;32.57;;;12.27;;
2944;SDS011;1482;51.398;7.128;2023-12-20T02:23:11;18.43;;;9.37;;
2944;SDS011;1482;51.398;7.128;2023-12-20T02:25:36;23.63;;;9.53;;
2944;SDS011;1482;51.398;7.128;2023-12-20T02:28:02;18.90;;;9.03;;
2944;SDS011;1482;51.398;7.128;2023-12-20T02:30:29;18.27;;;8.03;;
2944;SDS011;1482;51.398;7.128;2023-12-20T02:32:54;25.17;;;9.37;;
2944;SDS011;1482;51.398;7.128;2023-12-20T02:35:21;30.37;;;9.73;;
2944;SDS011;1482;51.398;7.128;2023-12-20T02:37:46;15.00;;;9.13;;
2944;SDS011;1482;51.398;7.128;2023-12-20T02:40:13;16.23;;;9.30;;
2944;SDS011;1482;51.398;7.128;2023-12-20T02:42:38;14.97;;;10.63;;
2944;SDS011;1482;51.398;7.128;2023-12-20T02:45:04;39.40;;;10.63;;
2944;SDS011;1482;51.398;7.128;2023-12-20T02:47:30;25.37;;;10.13;;
2944;SDS011;1482;51.398;7.128;2023-12-20T02:49:55;16.90;;;8.77;;
2944;SDS011;1482;51.398;7.128;2023-12-20T02:52:22;23.73;;;9.73;;
2944;SDS011;1482;51.398;7.128;2023-12-20T02:54:48;25.40;;;9.40;;
2944;SDS011;1482;51.398;7.128;2023-12-20T02:57:14;22.27;;;8.83;;
2944;SDS011;1482;51.398;7.128;2023-12-20T02:59:39;20.57;;;9.77;;
2944;SDS011;1482;51.398;7.128;2023-12-20T03:02:05;17.57;;;9.57;;
2944;SDS011;1482;51.398;7.128;2023-12-20T03:04:30;22.20;;;9.13;;
2944;SDS011;1482;51.398;7.128;2023-12-20T03:06:56;22.57;;;10.27;;
2944;SDS011;1482;51.398;7.128;2023-12-20T03:09:21;20.33;;;9.63;;
2944;SDS011;1482;51.398;7.128;2023-12-20T03:11:47;14.20;;;8.03;;
2944;SDS011;1482;51.398;7.128;2023-12-20T03:14:12;19.70;;;9.23;;
2944;SDS011;1482;51.398;7.128;2023-12-20T03:16:38;16.83;;;9.30;;
2944;SDS011;1482;51.398;7.128;2023-12-20T03:19:03;20.37;;;10.03;;
2944;SDS011;1482;51.398;7.128;2023-12-20T03:21:29;26.60;;;9.87;;
2944;SDS011;1482;51.398;7.128;2023-12-20T03:23:54;18.17;;;9.10;;
2944;SDS011;1482;51.398;7.128;2023-12-20T03:26:20;28.73;;;10.20;;
2944;SDS011;1482;51.398;7.128;2023-12-20T03:28:47;21.80;;;9.57;;
2944;SDS011;1482;51.398;7.128;2023-12-20T03:31:13;15.70;;;10.03;;
2944;SDS011;1482;51.398;7.128;2023-12-20T03:33:39;23.27;;;10.87;;
2944;SDS011;1482;51.398;7.128;2023-12-20T03:36:04;15.30;;;9.50;;
2944;SDS011;1482;51.398;7.128;2023-12-20T03:38:30;16.33;;;10.33;;
2944;SDS011;1482;51.398;7.128;2023-12-20T03:40:55;19.73;;;11.90;;
2944;SDS011;1482;51.398;7.128;2023-12-20T03:43:21;20.20;;;11.67;;
2944;SDS011;1482;51.398;7.128;2023-12-20T03:45:46;28.20;;;12.03;;
2944;SDS011;1482;51.398;7.128;2023-12-20T03:48:12;20.80;;;10.87;;
2944;SDS011;1482;51.398;7.128;2023-12-20T03:50:38;18.13;;;11.17;;
2944;SDS011;1482;51.398;7.128;2023-12-20T03:53:03;19.03;;;11.93;;
2944;SDS011;1482;51.398;7.128;2023-12-20T03:55:29;23.33;;;12.73;;
2944;SDS011;1482;51.398;7.128;2023-12-20T03:57:54;22.17;;;10.90;;
2944;SDS011;1482;51.398;7.128;2023-12-20T04:00:20;27.17;;;10.93;;
2944;SDS011;1482;51.398;7.128;2023-12-20T04:02:45;22.87;;;9.97;;
2944;SDS011;1482;51.398;7.128;2023-12-20T04:05:11;26.43;;;10.17;;
2944;SDS011;1482;51.398;7.128;2023-12-20T04:07:37;26.80;;;11.00;;
2944;SDS011;1482;51.398;7.128;2023-12-20T04:10:02;16.83;;;9.60;;
2944;SDS011;1482;51.398;7.128;2023-12-20T04:12:29;21.63;;;9.57;;
2944;SDS011;1482;51.398;7.128;2023-12-20T04:14:54;16.77;;;9.40;;
2944;SDS011;1482;51.398;7.128;2023-12-20T04:17:20;15.00;;;9.07;;
2944;SDS011;1482;51.398;7.128;2023-12-20T04:19:47;19.87;;;9.87;;
2944;SDS011;1482;51.398;7.128;2023-12-20T04:22:19;16.40;;;9.80;;
2944;SDS011;1482;51.398;7.128;2023-12-20T04:24:45;22.10;;;7.83;;
2944;SDS011;1482;51.398;7.128;2023-12-20T04:27:11;20.47;;;9.13;;
2944;SDS011;1482;51.398;7.128;2023-12-20T04:29:36;23.33;;;9.17;;
2944;SDS011;1482;51.398;7.128;2023-12-20T04:32:02;17.80;;;9.57;;
2944;SDS011;1482;51.398;7.128;2023-12-20T04:34:28;20.23;;;9.83;;
2944;SDS011;1482;51.398;7.128;2023-12-20T04:36:54;18.37;;;9.73;;
2944;SDS011;1482;51.398;7.128;2023-12-20T04:39:20;27.13;;;9.47;;
2944;SDS011;1482;51.398;7.128;2023-12-20T04:41:45;29.70;;;12.47;;
2944;SDS011;1482;51.398;7.128;2023-12-20T04:44:12;22.87;;;10.73;;
2944;SDS011;1482;51.398;7.128;2023-12-20T04:46:38;17.50;;;11.57;;
2944;SDS011;1482;51.398;7.128;2023-12-20T04:49:04;23.63;;;10.43;;
2944;SDS011;1482;51.398;7.128;2023-12-20T04:51:30;13.93;;;8.90;;
2944;SDS011;1482;51.398;7.128;2023-12-20T04:53:58;18.33;;;9.00;;
2944;SDS011;1482;51.398;7.128;2023-12-20T04:56:24;24.10;;;10.30;;
2944;SDS011;1482;51.398;7.128;2023-12-20T04:58:49;28.93;;;11.10;;
2944;SDS011;1482;51.398;7.128;2023-12-20T05:01:15;25.23;;;10.33;;
2944;SDS011;1482;51.398;7.128;2023-12-20T05:03:40;19.50;;;8.87;;
2944;SDS011;1482;51.398;7.128;2023-12-20T05:06:06;28.70;;;9.33;;
2944;SDS011;1482;51.398;7.128;2023-12-20T05:08:31;26.07;;;10.97;;
2944;SDS011;1482;51.398;7.128;2023-12-20T05:10:57;21.23;;;11.70;;
2944;SDS011;1482;51.398;7.128;2023-12-20T05:13:22;25.67;;;11.60;;
2944;SDS011;1482;51.398;7.128;2023-12-20T05:15:48;23.27;;;10.73;;
2944;SDS011;1482;51.398;7.128;2023-12-20T05:18:13;41.93;;;10.93;;
2944;SDS011;1482;51.398;7.128;2023-12-20T05:20:39;27.53;;;10.70;;
2944;SDS011;1482;51.398;7.128;2023-12-20T05:23:05;24.83;;;10.87;;
2944;SDS011;1482;51.398;7.128;2023-12-20T05:25:31;25.90;;;13.97;;
2944;SDS011;1482;51.398;7.128;2023-12-20T05:27:57;25.90;;;11.37;;
2944;SDS011;1482;51.398;7.128;2023-12-20T05:30:22;29.23;;;12.80;;
2944;SDS011;1482;51.398;7.128;2023-12-20T05:32:48;19.80;;;11.07;;
2944;SDS011;1482;51.398;7.128;2023-12-20T05:35:13;27.83;;;13.40;;
2944;SDS011;1482;51.398;7.128;2023-12-20T05:37:40;24.27;;;11.50;;
2944;SDS011;1482;51.398;7.128;2023-12-20T05:40:06;22.50;;;12.10;;
2944;SDS011;1482;51.398;7.128;2023-12-20T05:42:35;23.00;;;11.30;;
2944;SDS011;1482;51.398;7.128;2023-12-20T05:45:01;28.77;;;11.27;;
2944;SDS011;1482;51.398;7.128;2023-12-20T05:47:26;16.60;;;10.00;;
2944;SDS011;1482;51.398;7.128;2023-12-20T05:49:52;23.27;;;12.10;;
2944;SDS011;1482;51.398;7.128;2023-12-20T05:52:18;19.47;;;11.30;;
2944;SDS011;1482;51.398;7.128;2023-12-20T05:54:43;18.47;;;11.10;;
2944;SDS011;1482;51.398;7.128;2023-12-20T05:57:09;27.10;;;11.10;;
2944;SDS011;1482;51.398;7.128;2023-12-20T05:59:35;30.53;;;13.33;;
2944;SDS011;1482;51.398;7.128;2023-12-20T06:02:00;28.33;;;11.57;;
2944;SDS011;1482;51.398;7.128;2023-12-20T06:04:27;24.73;;;11.27;;
2944;SDS011;1482;51.398;7.128;2023-12-20T06:06:54;17.73;;;10.23;;
2944;SDS011;1482;51.398;7.128;2023-12-20T06:09:19;21.23;;;10.63;;
2944;SDS011;1482;51.398;7.128;2023-12-20T06:11:45;29.83;;;11.53;;
2944;SDS011;1482;51.398;7.128;2023-12-20T06:14:10;21.50;;;9.70;;
2944;SDS011;1482;51.398;7.128;2023-12-20T06:16:36;18.70;;;10.07;;
2944;SDS011;1482;51.398;7.128;2023-12-20T06:19:02;39.03;;;10.20;;
2944;SDS011;1482;51.398;7.128;2023-12-20T06:21:27;26.30;;;9.70;;
2944;SDS011;1482;51.398;7.128;2023-12-20T06:23:53;20.03;;;7.70;;
2944;SDS011;1482;51.398;7.128;2023-12-20T06:26:18;21.93;;;9.50;;
2944;SDS011;1482;51.398;7.128;2023-12-20T06:28:44;18.00;;;8.80;;
2944;SDS011;1482;51.398;7.128;2023-12-20T06:31:10;13.97;;;8.33;;
2944;SDS011;1482;51.398;7.128;2023-12-20T06:33:35;20.60;;;8.90;;
2944;SDS011;1482;51.398;7.128;2023-12-20T06:36:01;19.13;;;8.40;;
2944;SDS011;1482;51.398;7.128;2023-12-20T06:38:26;17.40;;;9.43;;
2944;SDS011;1482;51.398;7.128;2023-12-20T06:40:52;19.43;;;8.50;;
2944;SDS011;1482;51.398;7.128;2023-12-20T06:43:18;17.40;;;9.03;;
2944;SDS011;1482;51.398;7.128;2023-12-20T06:45:44;18.53;;;7.93;;
2944;SDS011;1482;51.398;7.128;2023-12-20T06:48:09;21.00;;;9.37;;
2944;SDS011;1482;51.398;7.128;2023-12-20T06:50:37;20.40;;;8.93;;
2944;SDS011;1482;51.398;7.128;2023-12-20T06:53:05;15.90;;;8.70;;
2944;SDS011;1482;51.398;7.128;2023-12-20T06:55:31;16.53;;;8.50;;
2944;SDS011;1482;51.398;7.128;2023-12-20T06:57:58;14.60;;;7.37;;
2944;SDS011;1482;51.398;7.128;2023-12-20T07:00:23;15.23;;;8.50;;
2944;SDS011;1482;51.398;7.128;2023-12-20T07:02:49;12.73;;;6.90;;
2944;SDS011;1482;51.398;7.128;2023-12-20T07:05:18;17.73;;;7.10;;
2944;SDS011;1482;51.398;7.128;2023-12-20T07:07:45;19.60;;;7.70;;
2944;SDS011;1482;51.398;7.128;2023-12-20T07:10:11;21.13;;;8.80;;
2944;SDS011;1482;51.398;7.128;2023-12-20T07:12:37;21.63;;;8.17;;
2944;SDS011;1482;51.398;7.128;2023-12-20T07:15:03;16.83;;;8.17;;
2944;SDS011;1482;51.398;7.128;2023-12-20T07:17:30;14.23;;;8.13;;
2944;SDS011;1482;51.398;7.128;2023-12-20T07:19:58;19.77;;;7.23;;
2944;SDS011;1482;51.398;7.128;2023-12-20T07:22:23;20.23;;;7.30;;
2944;SDS011;1482;51.398;7.128;2023-12-20T07:24:49;22.93;;;8.57;;
2944;SDS011;1482;51.398;7.128;2023-12-20T07:27:17;20.70;;;8.33;;
2944;SDS011;1482;51.398;7.128;2023-12-20T07:29:42;21.50;;;7.50;;
2944;SDS011;1482;51.398;7.128;2023-12-20T07:32:08;16.63;;;8.20;;
2944;SDS011;1482;51.398;7.128;2023-12-20T07:34:33;23.40;;;10.07;;
2944;SDS011;1482;51.398;7.128;2023-12-20T07:36:59;19.40;;;7.77;;
2944;SDS011;1482;51.398;7.128;2023-12-20T07:39:24;14.03;;;7.07;;
2944;SDS011;1482;51.398;7.128;2023-12-20T07:41:50;14.70;;;7.67;;
2944;SDS011;1482;51.398;7.128;2023-12-20T07:44:15;15.47;;;7.67;;
2944;SDS011;1482;51.398;7.128;2023-12-20T07:46:41;17.83;;;9.63;;
2944;SDS011;1482;51.398;7.128;2023-12-20T07:49:06;26.10;;;9.27;;
2944;SDS011;1482;51.398;7.128;2023-12-20T07:51:33;29.33;;;8.00;;
2944;SDS011;1482;51.398;7.128;2023-12-20T07:53:59;27.93;;;8.77;;
2944;SDS011;1482;51.398;7.128;2023-12-20T07:56:24;17.73;;;7.33;;
2944;SDS011;1482;51.398;7.128;2023-12-20T07:58:50;17.73;;;8.17;;
2944;SDS011;1482;51.398;7.128;2023-12-20T08:01:15;13.13;;;7.60;;
2944;SDS011;1482;51.398;7.128;2023-12-20T08:03:43;23.00;;;8.70;;
2944;SDS011;1482;51.398;7.128;2023-12-20T08:06:08;21.90;;;7.63;;
2944;SDS011;1482;51.398;7.128;2023-12-20T08:08:34;25.83;;;8.40;;
2944;SDS011;1482;51.398;7.128;2023-12-20T08:10:59;17.90;;;7.83;;
2944;SDS011;1482;51.398;7.128;2023-12-20T08:13:26;25.83;;;7.67;;
2944;SDS011;1482;51.398;7.128;2023-12-20T08:15:52;17.97;;;8.97;;
2944;SDS011;1482;51.398;7.128;2023-12-20T08:18:18;15.03;;;7.40;;
2944;SDS011;1482;51.398;7.128;2023-12-20T08:20:43;15.80;;;7.40;;
2944;SDS011;1482;51.398;7.128;2023-12-20T08:23:09;29.10;;;7.87;;
2944;SDS011;1482;51.398;7.128;2023-12-20T08:25:35;28.57;;;11.20;;
2944;SDS011;1482;51.398;7.128;2023-12-20T08:28:01;20.93;;;8.47;;
2944;SDS011;1482;51.398;7.128;2023-12-20T08:30:27;25.10;;;7.30;;
2944;SDS011;1482;51.398;7.128;2023-12-20T08:32:54;23.60;;;7.53;;
2944;SDS011;1482;51.398;7.128;2023-12-20T08:35:20;18.20;;;9.23;;
2944;SDS011;1482;51.398;7.128;2023-12-20T08:37:45;24.70;;;7.87;;
2944;SDS011;1482;51.398;7.128;2023-12-20T08:40:11;28.43;;;7.97;;
2944;SDS011;1482;51.398;7.128;2023-12-20T08:42:36;23.37;;;9.00;;
2944;SDS011;1482;51.398;7.128;2023-12-20T08:45:02;23.23;;;8.53;;
2944;SDS011;1482;51.398;7.128;2023-12-20T08:47:29;17.53;;;8.57;;
2944;SDS011;1482;51.398;7.128;2023-12-20T08:49:54;35.40;;;9.00;;
2944;SDS011;1482;51.398;7.128;2023-12-20T08:52:22;21.53;;;7.20;;
2944;SDS011;1482;51.398;7.128;2023-12-20T08:54:48;20.67;;;8.20;;
2944;SDS011;1482;51.398;7.128;2023-12-20T08:57:16;18.03;;;8.63;;
2944;SDS011;1482;51.398;7.128;2023-12-20T08:59:46;20.47;;;9.67;;
2944;SDS011;1482;51.398;7.128;2023-12-20T09:02:12;16.60;;;8.60;;
2944;SDS011;1482;51.398;7.128;2023-12-20T09:04:38;26.83;;;9.73;;
2944;SDS011;1482;51.398;7.128;2023-12-20T09:07:04;16.30;;;7.80;;
2944;SDS011;1482;51.398;7.128;2023-12-20T09:09:29;17.23;;;8.60;;
2944;SDS011;1482;51.398;7.128;2023-12-20T09:11:57;20.33;;;8.63;;
2944;SDS011;1482;51.398;7.128;2023-12-20T09:14:22;17.77;;;7.80;;
2944;SDS011;1482;51.398;7.128;2023-12-20T09:16:48;16.10;;;6.73;;
2944;SDS011;1482;51.398;7.128;2023-12-20T09:19:16;19.70;;;6.23;;
2944;SDS011;1482;51.398;7.128;2023-12-20T09:21:42;18.57;;;7.23;;
2944;SDS011;1482;51.398;7.128;2023-12-20T09:24:07;30.83;;;8.03;;
2944;SDS011;1482;51.398;7.128;2023-12-20T09:26:33;23.73;;;5.93;;
2944;SDS011;1482;51.398;7.128;2023-12-20T09:28:59;23.73;;;6.50;;
2944;SDS011;1482;51.398;7.128;2023-12-20T09:31:25;14.70;;;6.10;;
2944;SDS011;1482;51.398;7.128;2023-12-20T09:33:50;11.67;;;5.67;;
2944;SDS011;1482;51.398;7.128;2023-12-20T09:36:16;20.30;;;5.60;;
2944;SDS011;1482;51.398;7.128;2023-12-20T09:38:41;15.50;;;4.53;;
2944;SDS011;1482;51.398;7.128;2023-12-20T09:41:07;13.00;;;5.90;;
2944;SDS011;1482;51.398;7.128;2023-12-20T09:43:33;14.43;;;5.80;;
2944;SDS011;1482;51.398;7.128;2023-12-20T09:46:02;11.00;;;5.70;;
2944;SDS011;1482;51.398;7.128;2023-12-20T09:48:32;24.17;;;5.00;;
2944;SDS011;1482;51.398;7.128;2023-12-20T09:50:58;28.43;;;7.40;;
2944;SDS011;1482;51.398;7.128;2023-12-20T09:53:24;11.50;;;6.30;;
2944;SDS011;1482;51.398;7.128;2023-12-20T09:55:54;11.87;;;4.50;;
2944;SDS011;1482;51.398;7.128;2023-12-20T09:58:25;18.67;;;5.60;;
2944;SDS011;1482;51.398;7.128;2023-12-20T10:00:51;16.57;;;6.50;;
2944;SDS011;1482;51.398;7.128;2023-12-20T10:03:17;14.40;;;7.00;;
2944;SDS011;1482;51.398;7.128;2023-12-20T10:05:48;16.23;;;4.63;;
2944;SDS011;1482;51.398;7.128;2023-12-20T10:08:17;26.43;;;4.77;;
2944;SDS011;1482;51.398;7.128;2023-12-20T10:10:45;19.00;;;5.70;;
2944;SDS011;1482;51.398;7.128;2023-12-20T10:13:11;15.57;;;4.93;;
2944;SDS011;1482;51.398;7.128;2023-12-20T10:15:38;19.33;;;6.00;;
2944;SDS011;1482;51.398;7.128;2023-12-20T10:18:04;12.03;;;4.77;;
2944;SDS011;1482;51.398;7.128;2023-12-20T10:20:30;16.47;;;4.93;;
2944;SDS011;1482;51.398;7.128;2023-12-20T10:22:56;13.17;;;5.67;;
2944;SDS011;1482;51.398;7.128;2023-12-20T10:25:23;19.00;;;6.10;;
2944;SDS011;1482;51.398;7.128;2023-12-20T10:27:49;23.13;;;5.80;;
2944;SDS011;1482;51.398;7.128;2023-12-20T10:30:15;10.60;;;5.20;;
2944;SDS011;1482;51.398;7.128;2023-12-20T10:32:41;15.53;;;5.30;;
2944;SDS011;1482;51.398;7.128;2023-12-20T10:35:07;20.73;;;5.60;;
2944;SDS011;1482;51.398;7.128;2023-12-20T10:37:36;12.40;;;5.27;;
2944;SDS011;1482;51.398;7.128;2023-12-20T10:40:03;10.00;;;4.67;;
2944;SDS011;1482;51.398;7.128;2023-12-20T10:42:31;22.57;;;6.77;;
2944;SDS011;1482;51.398;7.128;2023-12-20T10:44:58;26.10;;;5.73;;
2944;SDS011;1482;51.398;7.128;2023-12-20T10:47:25;17.47;;;6.47;;
2944;SDS011;1482;51.398;7.128;2023-12-20T10:49:51;18.67;;;5.73;;
2944;SDS011;1482;51.398;7.128;2023-12-20T10:52:18;11.40;;;5.47;;
2944;SDS011;1482;51.398;7.128;2023-12-20T10:54:45;14.37;;;4.13;;
2944;SDS011;1482;51.398;7.128;2023-12-20T10:57:11;10.80;;;5.20;;
2944;SDS011;1482;51.398;7.128;2023-12-20T10:59:37;14.00;;;4.50;;
2944;SDS011;1482;51.398;7.128;2023-12-20T11:02:04;16.70;;;5.30;;
2944;SDS011;1482;51.398;7.128;2023-12-20T11:07:37;22.80;;;5.20;;
2944;SDS011;1482;51.398;7.128;2023-12-20T11:10:13;14.00;;;4.83;;
2944;SDS011;1482;51.398;7.128;2023-12-20T11:12:50;18.60;;;5.37;;
2944;SDS011;1482;51.398;7.128;2023-12-20T11:15:19;16.43;;;6.07;;
2944;SDS011;1482;51.398;7.128;2023-12-20T11:17:47;14.97;;;5.80;;
2944;SDS011;1482;51.398;7.128;2023-12-20T11:20:22;17.67;;;5.67;;
2944;SDS011;1482;51.398;7.128;2023-12-20T11:23:00;18.10;;;5.03;;
2944;SDS011;1482;51.398;7.128;2023-12-20T11:25:26;10.07;;;5.27;;
2944;SDS011;1482;51.398;7.128;2023-12-20T11:28:07;11.60;;;5.70;;
2944;SDS011;1482;51.398;7.128;2023-12-20T11:30:45;24.80;;;6.47;;
2944;SDS011;1482;51.398;7.128;2023-12-20T11:33:25;25.57;;;7.50;;
2944;SDS011;1482;51.398;7.128;2023-12-20T11:35:51;14.73;;;6.80;;
2944;SDS011;1482;51.398;7.128;2023-12-20T11:38:20;9.33;;;5.47;;
2944;SDS011;1482;51.398;7.128;2023-12-20T11:40:47;13.57;;;5.40;;
2944;SDS011;1482;51.398;7.128;2023-12-20T11:46:19;18.80;;;6.00;;
2944;SDS011;1482;51.398;7.128;2023-12-20T11:48:44;21.10;;;5.93;;
2944;SDS011;1482;51.398;7.128;2023-12-20T11:51:11;27.03;;;8.60;;
2944;SDS011;1482;51.398;7.128;2023-12-20T11:53:37;16.43;;;5.70;;
2944;SDS011;1482;51.398;7.128;2023-12-20T11:56:04;20.77;;;6.63;;
2944;SDS011;1482;51.398;7.128;2023-12-20T11:58:35;16.43;;;6.20;;
2944;SDS011;1482;51.398;7.128;2023-12-20T12:01:02;15.53;;;5.53;;
2944;SDS011;1482;51.398;7.128;2023-12-20T12:03:27;22.27;;;6.23;;
2944;SDS011;1482;51.398;7.128;2023-12-20T12:05:53;14.87;;;6.30;;
2944;SDS011;1482;51.398;7.128;2023-12-20T12:08:18;41.17;;;16.60;;
2944;SDS011;1482;51.398;7.128;2023-12-20T12:10:44;23.80;;;13.47;;
2944;SDS011;1482;51.398;7.128;2023-12-20T12:13:10;17.90;;;9.03;;
2944;SDS011;1482;51.398;7.128;2023-12-20T12:15:37;33.47;;;15.30;;
2944;SDS011;1482;51.398;7.128;2023-12-20T12:18:03;14.50;;;6.27;;
2944;SDS011;1482;51.398;7.128;2023-12-20T12:20:29;14.83;;;5.27;;
2944;SDS011;1482;51.398;7.128;2023-12-20T12:22:58;13.80;;;6.10;;
2944;SDS011;1482;51.398;7.128;2023-12-20T12:25:24;23.90;;;6.57;;
2944;SDS011;1482;51.398;7.128;2023-12-20T12:27:50;8.00;;;5.70;;
2944;SDS011;1482;51.398;7.128;2023-12-20T12:30:16;16.67;;;6.00;;
2944;SDS011;1482;51.398;7.128;2023-12-20T12:32:43;11.57;;;4.60;;
2944;SDS011;1482;51.398;7.128;2023-12-20T12:35:09;17.03;;;8.83;;
2944;SDS011;1482;51.398;7.128;2023-12-20T12:37:37;18.77;;;9.80;;
2944;SDS011;1482;51.398;7.128;2023-12-20T12:40:14;25.83;;;9.87;;
2944;SDS011;1482;51.398;7.128;2023-12-20T12:42:41;17.63;;;10.20;;
2944;SDS011;1482;51.398;7.128;2023-12-20T12:45:08;12.37;;;8.00;;
2944;SDS011;1482;51.398;7.128;2023-12-20T12:47:34;17.03;;;6.60;;
2944;SDS011;1482;51.398;7.128;2023-12-20T12:50:00;15.10;;;6.33;;
2944;SDS011;1482;51.398;7.128;2023-12-20T12:52:26;17.67;;;5.83;;
2944;SDS011;1482;51.398;7.128;2023-12-20T12:54:52;19.27;;;7.13;;
2944;SDS011;1482;51.398;7.128;2023-12-20T12:57:18;13.27;;;6.13;;
2944;SDS011;1482;51.398;7.128;2023-12-20T12:59:44;16.43;;;5.67;;
2944;SDS011;1482;51.398;7.128;2023-12-20T13:02:11;20.73;;;7.80;;
2944;SDS011;1482;51.398;7.128;2023-12-20T13:04:40;18.90;;;6.80;;
2944;SDS011;1482;51.398;7.128;2023-12-20T13:07:07;8.10;;;4.97;;
2944;SDS011;1482;51.398;7.128;2023-12-20T13:09:35;14.57;;;6.80;;
2944;SDS011;1482;51.398;7.128;2023-12-20T13:12:01;16.03;;;6.43;;
2944;SDS011;1482;51.398;7.128;2023-12-20T13:14:28;11.77;;;5.73;;
2944;SDS011;1482;51.398;7.128;2023-12-20T13:16:54;14.37;;;6.00;;
2944;SDS011;1482;51.398;7.128;2023-12-20T13:19:21;16.23;;;7.20;;
2944;SDS011;1482;51.398;7.128;2023-12-20T13:21:46;12.20;;;5.63;;
2944;SDS011;1482;51.398;7.128;2023-12-20T13:24:12;15.80;;;5.73;;
2944;SDS011;1482;51.398;7.128;2023-12-20T13:26:37;18.93;;;7.80;;
2944;SDS011;1482;51.398;7.128;2023-12-20T13:29:03;16.20;;;7.00;;
2944;SDS011;1482;51.398;7.128;2023-12-20T13:31:28;17.53;;;7.00;;
2944;SDS011;1482;51.398;7.128;2023-12-20T13:33:54;12.63;;;6.20;;
2944;SDS011;1482;51.398;7.128;2023-12-20T13:36:19;18.87;;;6.60;;
2944;SDS011;1482;51.398;7.128;2023-12-20T13:38:45;10.97;;;5.47;;
2944;SDS011;1482;51.398;7.128;2023-12-20T13:41:10;13.60;;;6.00;;
2944;SDS011;1482;51.398;7.128;2023-12-20T13:43:36;16.90;;;6.03;;
2944;SDS011;1482;51.398;7.128;2023-12-20T13:46:01;18.30;;;5.67;;
2944;SDS011;1482;51.398;7.128;2023-12-20T13:48:27;16.13;;;9.43;;
2944;SDS011;1482;51.398;7.128;2023-12-20T13:50:52;8.07;;;6.53;;
2944;SDS011;1482;51.398;7.128;2023-12-20T13:53:19;14.40;;;6.70;;
2944;SDS011;1482;51.398;7.128;2023-12-20T13:55:45;10.10;;;6.60;;
2944;SDS011;1482;51.398;7.128;2023-12-20T13:58:10;14.13;;;6.37;;
2944;SDS011;1482;51.398;7.128;2023-12-20T14:00:37;19.90;;;8.67;;
2944;SDS011;1482;51.398;7.128;2023-12-20T14:03:03;15.13;;;8.13;;
2944;SDS011;1482;51.398;7.128;2023-12-20T14:05:29;16.83;;;7.73;;
2944;SDS011;1482;51.398;7.128;2023-12-20T14:07:55;15.70;;;7.50;;
2944;SDS011;1482;51.398;7.128;2023-12-20T14:10:22;13.60;;;8.47;;
2944;SDS011;1482;51.398;7.128;2023-12-20T14:12:48;7.43;;;6.27;;
2944;SDS011;1482;51.398;7.128;2023-12-20T14:15:14;12.10;;;6.33;;
2944;SDS011;1482;51.398;7.128;2023-12-20T14:17:40;14.07;;;6.80;;
2944;SDS011;1482;51.398;7.128;2023-12-20T14:20:07;12.90;;;5.93;;
2944;SDS011;1482;51.398;7.128;2023-12-20T14:22:34;12.67;;;7.80;;
2944;SDS011;1482;51.398;7.128;2023-12-20T14:25:00;15.10;;;7.83;;
2944;SDS011;1482;51.398;7.128;2023-12-20T14:27:27;8.87;;;7.07;;
2944;SDS011;1482;51.398;7.128;2023-12-20T14:29:53;8.93;;;7.07;;
2944;SDS011;1482;51.398;7.128;2023-12-20T14:32:19;13.00;;;7.23;;
2944;SDS011;1482;51.398;7.128;2023-12-20T14:34:45;18.30;;;7.20;;
2944;SDS011;1482;51.398;7.128;2023-12-20T14:37:11;12.73;;;8.23;;
2944;SDS011;1482;51.398;7.128;2023-12-20T14:39:36;14.40;;;8.40;;
2944;SDS011;1482;51.398;7.128;2023-12-20T14:42:07;13.43;;;9.03;;
2944;SDS011;1482;51.398;7.128;2023-12-20T14:44:37;15.13;;;8.40;;
2944;SDS011;1482;51.398;7.128;2023-12-20T14:47:02;25.13;;;9.73;;
2944;SDS011;1482;51.398;7.128;2023-12-20T14:49:29;18.13;;;8.50;;
2944;SDS011;1482;51.398;7.128;2023-12-20T14:51:55;19.93;;;12.10;;
2944;SDS011;1482;51.398;7.128;2023-12-20T14:54:20;18.47;;;8.63;;
2944;SDS011;1482;51.398;7.128;2023-12-20T14:56:46;14.07;;;7.97;;
2944;SDS011;1482;51.398;7.128;2023-12-20T14:59:12;21.60;;;8.47;;